Time;durP1;ratioP1;P1;durP2;ratioP2;P2;SDS_P1;SDS_P2;PMS_P1;PMS_P2;Temp;Humidity;BMP_temperature;BMP_pressure;BME280_temperature;BME280_humidity;BME280_pressure;Samples;Min_cycle;Max_cycle;Signal;HPM_P1;HPM_P2
2021/04/21 00:00:20;;;;;;;11.13;10.07;;;13.60;51.90;;;;;;5009465;28;20033;-80
2021/04/21 00:02:50;;;;;;;9.95;8.75;;;13.60;51.90;;;;;;5009112;28;20033;-79
2021/04/21 00:05:18;;;;;;;8.80;7.90;;;13.50;51.80;;;;;;4992809;28;20497;-80
2021/04/21 00:07:45;;;;;;;10.93;9.43;;;13.50;51.90;;;;;;5008646;28;20483;-79
2021/04/21 00:10:12;;;;;;;10.80;9.77;;;13.40;51.70;;;;;;5025820;28;20121;-79
2021/04/21 00:12:39;;;;;;;12.13;9.55;;;13.40;51.80;;;;;;5009034;28;20041;-79
2021/04/21 00:15:12;;;;;;;10.20;8.88;;;13.40;51.90;;;;;;5008868;28;20029;-79
2021/04/21 00:17:42;;;;;;;12.57;10.27;;;13.30;51.80;;;;;;5010126;28;20678;-82
2021/04/21 00:20:09;;;;;;;10.55;9.43;;;13.30;51.90;;;;;;5009516;28;20045;-81
2021/04/21 00:22:36;;;;;;;10.27;9.18;;;13.30;51.90;;;;;;4995475;28;20072;-82
2021/04/21 00:25:06;;;;;;;11.52;9.13;;;13.20;51.80;;;;;;5008948;28;20034;-81
2021/04/21 00:27:33;;;;;;;14.15;9.88;;;13.20;51.90;;;;;;5008776;28;20037;-81
2021/04/21 00:30:10;;;;;;;10.15;9.15;;;13.20;52.00;;;;;;5008519;28;20021;-80
2021/04/21 00:32:47;;;;;;;11.75;9.63;;;13.10;51.90;;;;;;4992529;28;20044;-80
2021/04/21 00:35:20;;;;;;;10.10;9.10;;;13.10;52.00;;;;;;5019018;28;20030;-80
2021/04/21 00:37:48;;;;;;;9.35;8.02;;;13.10;52.10;;;;;;5024901;28;20037;-80
2021/04/21 00:40:19;;;;;;;11.32;10.18;;;13.10;52.00;;;;;;4992117;28;20101;-79
2021/04/21 00:43:00;;;;;;;11.25;9.48;;;13.00;51.90;;;;;;4991588;28;20029;-80
2021/04/21 00:45:48;;;;;;;10.48;9.38;;;13.00;52.00;;;;;;5025636;28;20507;-79
2021/04/21 00:48:38;;;;;;;10.70;9.52;;;13.00;52.10;;;;;;5025939;28;20128;-80
2021/04/21 00:51:11;;;;;;;10.52;8.60;;;12.90;51.90;;;;;;5026075;28;20045;-79
2021/04/21 00:53:48;;;;;;;10.25;9.25;;;12.90;51.90;;;;;;5026065;28;20056;-79
2021/04/21 00:56:37;;;;;;;11.05;9.15;;;12.90;51.90;;;;;;5008710;28;20030;-80
2021/04/21 00:59:10;;;;;;;9.80;8.77;;;12.90;52.00;;;;;;5008406;28;20457;-79
2021/04/21 01:01:37;;;;;;;9.77;8.82;;;12.90;52.10;;;;;;5026154;28;20388;-79
2021/04/21 01:04:06;;;;;;;10.48;9.38;;;12.80;51.90;;;;;;5008481;28;20034;-79
2021/04/21 01:06:43;;;;;;;14.48;9.35;;;12.80;52.00;;;;;;5008073;28;20033;-79
2021/04/21 01:09:12;;;;;;;11.15;9.98;;;12.80;52.10;;;;;;5009725;28;20040;-79
2021/04/21 01:11:49;;;;;;;10.63;9.63;;;12.80;52.10;;;;;;5012110;28;20053;-79
2021/04/21 01:14:26;;;;;;;11.32;10.18;;;12.80;52.20;;;;;;5011827;28;20534;-79
2021/04/21 01:17:01;;;;;;;12.32;10.48;;;12.70;52.00;;;;;;5012158;28;20116;-82
2021/04/21 01:19:41;;;;;;;11.32;10.10;;;12.80;52.20;;;;;;5017826;28;20361;-81
2021/04/21 01:22:29;;;;;;;14.73;11.18;;;12.70;52.10;;;;;;5043942;28;20424;-81
2021/04/21 01:25:06;;;;;;;11.63;10.27;;;12.70;52.10;;;;;;5011098;28;20041;-82
2021/04/21 01:27:57;;;;;;;14.25;10.75;;;12.70;52.00;;;;;;5027799;28;20092;-81
2021/04/21 01:30:24;;;;;;;13.20;11.43;;;12.70;52.20;;;;;;5010620;28;20030;-81
2021/04/21 01:32:59;;;;;;;12.18;10.98;;;12.70;52.10;;;;;;4971302;28;20030;-81
2021/04/21 01:35:28;;;;;;;14.35;11.60;;;12.70;52.30;;;;;;5013303;28;20043;-81
2021/04/21 01:37:58;;;;;;;12.13;10.82;;;12.70;52.20;;;;;;4993598;28;20148;-82
2021/04/21 01:40:42;;;;;;;13.52;11.77;;;12.70;52.20;;;;;;4995932;28;20113;-82
2021/04/21 01:43:43;;;;;;;14.65;13.07;;;12.70;52.30;;;;;;4996569;28;20099;-81
2021/04/21 01:46:14;;;;;;;15.35;12.57;;;12.60;52.10;;;;;;4969733;28;20095;-81
2021/04/21 01:48:42;;;;;;;17.98;13.05;;;12.60;52.10;;;;;;5014559;28;20106;-81
2021/04/21 01:51:32;;;;;;;14.82;13.43;;;12.70;52.30;;;;;;5015668;28;20076;-81
2021/04/21 01:54:14;;;;;;;18.30;14.10;;;12.70;52.40;;;;;;4989757;28;20124;-82
2021/04/21 01:56:49;;;;;;;13.63;12.32;;;12.60;52.20;;;;;;5015504;28;20385;-80
2021/04/21 01:59:24;;;;;;;14.63;13.10;;;12.60;52.10;;;;;;5015345;28;20021;-81
2021/04/21 02:02:17;;;;;;;16.83;15.13;;;12.60;52.20;;;;;;4995511;28;20026;-81
2021/04/21 02:04:54;;;;;;;15.60;14.05;;;12.60;52.20;;;;;;4989399;28;20056;-81
2021/04/21 02:07:42;;;;;;;15.35;13.80;;;12.60;52.20;;;;;;4995715;28;20038;-80
2021/04/21 02:10:39;;;;;;;16.73;13.23;;;12.60;52.20;;;;;;5031750;28;20061;-79
2021/04/21 02:13:09;;;;;;;16.25;14.55;;;12.60;52.20;;;;;;4996124;28;20490;-80
2021/04/21 02:15:43;;;;;;;16.83;15.05;;;12.60;52.20;;;;;;5016001;28;20040;-79
2021/04/21 02:18:28;;;;;;;17.48;15.13;;;12.60;52.30;;;;;;4995937;28;20113;-80
2021/04/21 02:21:13;;;;;;;18.52;15.95;;;12.60;52.30;;;;;;4989553;28;20145;-79
2021/04/21 02:23:45;;;;;;;18.02;16.23;;;12.60;52.30;;;;;;5024119;28;20389;-80
2021/04/21 02:26:35;;;;;;;17.05;15.32;;;12.60;52.30;;;;;;5033075;28;20038;-79
2021/04/21 02:29:24;;;;;;;18.52;16.05;;;12.60;52.30;;;;;;5012262;28;20611;-80
2021/04/21 02:32:08;;;;;;;17.35;15.60;;;12.60;52.30;;;;;;5009357;28;20037;-80
2021/04/21 02:35:11;;;;;;;21.00;16.60;;;12.60;52.30;;;;;;4998971;28;20108;-80
2021/04/21 02:38:03;;;;;;;19.23;16.70;;;12.60;52.30;;;;;;5032997;28;20369;-80
2021/04/21 02:40:46;;;;;;;18.83;16.25;;;12.60;52.30;;;;;;5033145;28;20029;-80
2021/04/21 02:43:35;;;;;;;18.38;16.45;;;12.60;52.20;;;;;;5031526;28;20029;-80
2021/04/21 02:46:30;;;;;;;19.80;16.65;;;12.50;52.10;;;;;;5032842;28;20485;-80
2021/04/21 02:49:17;;;;;;;21.02;17.40;;;12.60;52.30;;;;;;5015326;28;20037;-80
2021/04/21 02:52:11;;;;;;;20.17;16.95;;;12.50;52.10;;;;;;4991559;28;20029;-80
2021/04/21 02:55:08;;;;;;;20.75;15.70;;;12.50;52.10;;;;;;5011437;28;20052;-80
2021/04/21 02:57:50;;;;;;;20.63;16.80;;;12.50;52.10;;;;;;5014937;28;20033;-79
2021/04/21 03:00:36;;;;;;;20.00;17.70;;;12.50;52.10;;;;;;5014941;28;20030;-81
2021/04/21 03:03:17;;;;;;;18.65;16.75;;;12.50;52.10;;;;;;4992846;28;20028;-80
2021/04/21 03:06:02;;;;;;;24.10;18.27;;;12.50;52.10;;;;;;5011655;28;20052;-80
2021/04/21 03:08:39;;;;;;;18.85;16.83;;;12.40;52.00;;;;;;4978422;28;20080;-81
2021/04/21 03:11:09;;;;;;;19.52;17.25;;;12.40;52.00;;;;;;4994931;28;20073;-81
2021/04/21 03:13:39;;;;;;;21.13;18.10;;;12.40;52.00;;;;;;4978762;28;20038;-82
2021/04/21 03:16:12;;;;;;;21.00;17.55;;;12.40;52.10;;;;;;4994924;28;20033;-81
2021/04/21 03:18:42;;;;;;;21.35;16.63;;;12.40;52.10;;;;;;4994805;28;20481;-81
2021/04/21 03:21:26;;;;;;;18.65;16.67;;;12.40;52.10;;;;;;4994933;28;20041;-80
2021/04/21 03:24:16;;;;;;;20.95;17.95;;;12.30;52.00;;;;;;4978568;28;20056;-80
2021/04/21 03:26:46;;;;;;;19.52;17.55;;;12.30;52.00;;;;;;5012356;28;20048;-80
2021/04/21 03:29:17;;;;;;;21.63;18.83;;;12.30;52.00;;;;;;5010865;28;20026;-81
2021/04/21 03:31:46;;;;;;;20.40;18.27;;;12.30;52.00;;;;;;4994565;28;20397;-81
2021/04/21 03:34:16;;;;;;;20.52;18.33;;;12.30;52.10;;;;;;4994744;28;20061;-82
2021/04/21 03:36:44;;;;;;;20.75;18.65;;;12.20;51.90;;;;;;4975059;28;20068;-82
2021/04/21 03:39:12;;;;;;;19.23;17.20;;;12.20;52.00;;;;;;4991135;28;20034;-82
2021/04/21 03:41:38;;;;;;;20.25;18.13;;;12.20;52.00;;;;;;4991493;28;20076;-83
2021/04/21 03:44:06;;;;;;;24.88;18.80;;;12.20;52.00;;;;;;5006820;28;20072;-82
2021/04/21 03:46:33;;;;;;;20.40;18.00;;;12.20;52.10;;;;;;5011183;28;20030;-82
2021/04/21 03:49:00;;;;;;;20.92;18.67;;;12.20;52.10;;;;;;4978986;28;20088;-83
2021/04/21 03:51:27;;;;;;;23.10;19.13;;;12.20;52.10;;;;;;5010789;28;20496;-82
2021/04/21 03:53:54;;;;;;;25.33;20.13;;;12.10;52.00;;;;;;5012104;28;20036;-82
2021/04/21 03:56:26;;;;;;;20.48;18.33;;;12.10;52.00;;;;;;4994662;28;20140;-83
2021/04/21 03:58:54;;;;;;;22.35;18.52;;;12.10;52.10;;;;;;4975192;28;20037;-83
2021/04/21 04:01:25;;;;;;;23.05;20.55;;;12.00;51.90;;;;;;4992700;28;20136;-82
2021/04/21 04:03:58;;;;;;;23.38;19.55;;;12.00;51.90;;;;;;4977900;28;20036;-82
2021/04/21 04:06:44;;;;;;;26.27;20.35;;;12.00;51.90;;;;;;4994425;28;20045;-83
2021/04/21 04:09:12;;;;;;;22.25;19.85;;;12.00;51.90;;;;;;4994169;28;20113;-82
2021/04/21 04:11:43;;;;;;;24.40;19.63;;;12.00;51.90;;;;;;4993693;28;20042;-82
2021/04/21 04:14:21;;;;;;;21.90;19.60;;;12.00;51.90;;;;;;4974934;28;20037;-81
2021/04/21 04:16:52;;;;;;;22.45;20.10;;;12.00;52.00;;;;;;4987285;28;20038;-81
2021/04/21 04:19:19;;;;;;;21.77;18.77;;;12.00;52.00;;;;;;5011703;28;20030;-83
2021/04/21 04:21:51;;;;;;;21.80;19.27;;;11.90;51.80;;;;;;5011832;28;20030;-82
2021/04/21 04:24:21;;;;;;;23.65;21.15;;;11.90;51.90;;;;;;4991761;28;20532;-82
2021/04/21 04:26:48;;;;;;;21.70;19.30;;;11.90;51.90;;;;;;4994277;28;20065;-82
2021/04/21 04:29:14;;;;;;;22.33;19.98;;;11.90;51.90;;;;;;5011846;28;20500;-83
2021/04/21 04:31:40;;;;;;;21.90;19.48;;;11.90;51.90;;;;;;5011848;28;20057;-82
2021/04/21 04:34:08;;;;;;;24.48;20.50;;;11.90;51.90;;;;;;4974667;28;20023;-82
2021/04/21 04:36:39;;;;;;;20.90;18.85;;;11.90;52.00;;;;;;4993720;28;20030;-81
2021/04/21 04:39:08;;;;;;;23.33;20.08;;;11.90;52.00;;;;;;4990710;28;20022;-81
2021/04/21 04:41:35;;;;;;;21.70;19.02;;;11.90;51.90;;;;;;5030938;28;20112;-81
2021/04/21 04:44:02;;;;;;;22.33;19.95;;;11.90;51.90;;;;;;5031626;28;20589;-81
2021/04/21 04:46:36;;;;;;;23.15;20.60;;;11.90;51.90;;;;;;5035035;28;20041;-81
2021/04/21 04:49:10;;;;;;;22.60;19.95;;;11.90;51.90;;;;;;5008985;28;20057;-81
2021/04/21 04:51:38;;;;;;;22.23;19.85;;;11.90;52.00;;;;;;5011405;28;20196;-81
2021/04/21 04:54:05;;;;;;;23.10;20.70;;;11.90;51.90;;;;;;5032272;28;20091;-81
2021/04/21 04:56:35;;;;;;;23.20;20.85;;;11.90;51.90;;;;;;5015484;28;20045;-81
2021/04/21 04:59:08;;;;;;;24.63;22.05;;;11.90;51.90;;;;;;4995859;28;20033;-81
2021/04/21 05:01:59;;;;;;;23.27;20.58;;;11.90;52.00;;;;;;5011265;28;20034;-81
2021/04/21 05:04:35;;;;;;;23.73;19.77;;;11.90;52.00;;;;;;5009727;28;20057;-81
2021/04/21 05:07:06;;;;;;;22.00;19.65;;;11.90;52.00;;;;;;4994013;28;20041;-81
2021/04/21 05:09:41;;;;;;;22.80;20.35;;;11.90;51.90;;;;;;5012473;28;20041;-81
2021/04/21 05:12:13;;;;;;;22.98;20.58;;;11.90;52.00;;;;;;5011761;28;20049;-80
2021/04/21 05:14:42;;;;;;;24.38;21.08;;;11.90;52.00;;;;;;4995110;28;20094;-80
2021/04/21 05:17:31;;;;;;;21.58;19.35;;;11.90;52.00;;;;;;5011799;28;20026;-81
2021/04/21 05:20:36;;;;;;;21.92;19.65;;;11.90;52.00;;;;;;5012090;28;20913;-81
2021/04/21 05:23:14;;;;;;;;;;;11.90;52.00;;;;;;4988602;28;20396;-79
2021/04/21 05:26:17;;;;;;;22.70;20.35;;;11.90;51.80;;;;;;5011281;28;19917;-80
2021/04/21 05:29:07;;;;;;;25.30;20.45;;;11.90;51.80;;;;;;5029167;28;20186;-80
2021/04/21 05:31:49;;;;;;;23.02;20.73;;;11.90;51.90;;;;;;5011679;28;20504;-82
2021/04/21 05:34:33;;;;;;;25.05;22.45;;;11.90;51.80;;;;;;4994831;28;20061;-81
2021/04/21 05:37:21;;;;;;;23.42;20.30;;;11.90;51.80;;;;;;5028325;28;20061;-80
2021/04/21 05:40:11;;;;;;;23.92;21.45;;;11.90;51.90;;;;;;4994886;28;20500;-82
2021/04/21 05:43:01;;;;;;;24.52;21.75;;;11.90;51.90;;;;;;4995623;28;20040;-78
2021/04/21 05:45:33;;;;;;;22.60;20.17;;;11.90;52.10;;;;;;5028238;28;20595;-81
2021/04/21 05:48:21;;;;;;;25.52;22.85;;;12.00;52.50;;;;;;5029025;28;20117;-82
2021/04/21 05:50:56;;;;;;;23.50;21.30;;;12.00;52.90;;;;;;5027507;28;20052;-81
2021/04/21 05:53:47;;;;;;;26.73;23.77;;;12.00;52.90;;;;;;5036678;28;20044;-80
2021/04/21 05:56:46;;;;;;;28.85;22.77;;;12.10;53.50;;;;;;5028667;28;20412;-82
2021/04/21 05:59:50;;;;;;;25.25;22.63;;;12.20;53.90;;;;;;5027068;28;20037;-81
2021/04/21 06:02:18;;;;;;;25.92;22.85;;;12.30;54.10;;;;;;5006922;28;20033;-79
2021/04/21 06:04:45;;;;;;;24.15;21.63;;;12.40;54.10;;;;;;5029055;28;20029;-83
2021/04/21 06:07:15;;;;;;;28.70;22.02;;;12.50;54.30;;;;;;4998239;28;20038;-82
2021/04/21 06:09:41;;;;;;;30.42;22.08;;;12.60;54.50;;;;;;5026109;28;20424;-81
2021/04/21 06:12:11;;;;;;;26.00;23.30;;;12.70;54.60;;;;;;4991079;28;20128;-82
2021/04/21 06:14:38;;;;;;;27.60;23.90;;;12.90;54.90;;;;;;5007964;28;20048;-82
2021/04/21 06:17:05;;;;;;;24.95;22.35;;;13.00;55.00;;;;;;4994295;28;20040;-84
2021/04/21 06:19:31;;;;;;;26.55;22.75;;;13.10;55.10;;;;;;5010514;28;20037;-81
2021/04/21 06:21:58;;;;;;;25.38;22.45;;;13.20;55.20;;;;;;5027157;28;20037;-84
2021/04/21 06:24:27;;;;;;;24.58;21.98;;;13.30;55.20;;;;;;5010811;28;20112;-80
2021/04/21 06:27:09;;;;;;;24.92;21.45;;;13.50;55.50;;;;;;5028771;28;20489;-84
2021/04/21 06:29:37;;;;;;;26.25;23.65;;;13.60;55.70;;;;;;4990638;28;20382;-81
2021/04/21 06:32:05;;;;;;;25.40;21.90;;;13.70;55.50;;;;;;5018014;28;20047;-80
2021/04/21 06:34:33;;;;;;;26.48;22.67;;;13.90;55.80;;;;;;4994267;28;20033;-83
2021/04/21 06:37:00;;;;;;;27.42;24.40;;;14.00;55.80;;;;;;5023614;28;20508;-83
2021/04/21 06:39:29;;;;;;;25.85;23.15;;;14.10;55.80;;;;;;4990320;28;20124;-81
2021/04/21 06:41:58;;;;;;;26.67;23.40;;;14.30;56.00;;;;;;5010414;28;20060;-81
2021/04/21 06:44:32;;;;;;;26.38;23.23;;;14.40;56.10;;;;;;4994077;28;20128;-81
2021/04/21 06:46:58;;;;;;;27.55;24.80;;;14.50;56.20;;;;;;4993799;28;20049;-82
2021/04/21 06:49:24;;;;;;;30.80;25.15;;;14.60;56.20;;;;;;4993595;28;20033;-80
2021/04/21 06:51:50;;;;;;;28.13;24.98;;;14.70;56.30;;;;;;5010094;28;20047;-81
2021/04/21 06:54:21;;;;;;;26.77;24.08;;;14.80;56.30;;;;;;4993166;28;20025;-81
2021/04/21 06:56:48;;;;;;;30.13;24.60;;;15.00;56.70;;;;;;4994027;28;20025;-83
2021/04/21 06:59:20;;;;;;;25.85;23.30;;;15.10;56.70;;;;;;5010308;28;20030;-82
2021/04/21 07:01:50;;;;;;;26.45;23.85;;;15.20;56.70;;;;;;5010219;28;20034;-82
2021/04/21 07:04:18;;;;;;;26.40;23.85;;;15.40;56.90;;;;;;5025436;28;20048;-81
2021/04/21 07:06:46;;;;;;;26.45;23.85;;;15.60;57.00;;;;;;4992362;28;20238;-82
2021/04/21 07:09:16;;;;;;;27.15;24.48;;;15.70;56.90;;;;;;4993125;28;20022;-83
2021/04/21 07:11:43;;;;;;;26.63;24.08;;;15.90;57.00;;;;;;5027559;28;20045;-82
2021/04/21 07:14:18;;;;;;;27.30;24.42;;;16.10;57.10;;;;;;5029325;28;20029;-82
2021/04/21 07:16:44;;;;;;;28.15;25.15;;;16.30;57.20;;;;;;5029761;28;20029;-82
2021/04/21 07:19:12;;;;;;;27.80;24.40;;;16.40;57.10;;;;;;5033264;28;20546;-83
2021/04/21 07:21:40;;;;;;;26.80;24.17;;;16.60;57.00;;;;;;5025357;28;20092;-83
2021/04/21 07:24:12;;;;;;;29.02;23.73;;;16.80;57.10;;;;;;5023447;28;20395;-83
2021/04/21 07:26:42;;;;;;;28.23;25.33;;;16.90;56.90;;;;;;5009701;28;20140;-82
2021/04/21 07:29:20;;;;;;;24.52;22.23;;;17.10;56.90;;;;;;5043528;28;20162;-83
2021/04/21 07:31:46;;;;;;;27.10;24.23;;;17.30;56.90;;;;;;4993805;28;20091;-81
2021/04/21 07:34:14;;;;;;;26.42;23.73;;;17.50;56.90;;;;;;4993724;28;20021;-83
2021/04/21 07:36:47;;;;;;;29.00;25.90;;;17.60;56.70;;;;;;5008975;28;20560;-83
2021/04/21 07:39:14;;;;;;;37.03;33.20;;;17.70;56.50;;;;;;5027566;28;20025;-83
2021/04/21 07:41:46;;;;;;;31.63;28.30;;;17.90;56.30;;;;;;5026244;28;20044;-83
2021/04/21 07:44:50;;;;;;;33.45;30.05;;;18.00;56.00;;;;;;5026004;28;20416;-82
2021/04/21 07:47:17;;;;;;;32.25;28.63;;;18.10;55.80;;;;;;4992297;28;20071;-81
2021/04/21 07:49:47;;;;;;;33.20;29.60;;;18.30;56.00;;;;;;5026663;28;20036;-83
2021/04/21 07:52:31;;;;;;;33.45;29.70;;;18.40;55.80;;;;;;5024517;28;20436;-80
2021/04/21 07:55:12;;;;;;;38.40;28.85;;;18.50;55.70;;;;;;5024990;28;20389;-79
2021/04/21 07:57:40;;;;;;;31.65;28.08;;;18.70;55.70;;;;;;5025453;28;20443;-80
2021/04/21 08:00:09;;;;;;;35.70;29.90;;;18.80;55.60;;;;;;5009837;28;20026;-80
2021/04/21 08:02:38;;;;;;;32.45;29.08;;;18.90;55.30;;;;;;5027371;28;20064;-81
2021/04/21 08:05:10;;;;;;;33.85;30.52;;;19.10;55.50;;;;;;5026099;28;20032;-82
2021/04/21 08:07:42;;;;;;;34.08;30.48;;;19.20;55.20;;;;;;5008409;28;20566;-82
2021/04/21 08:10:24;;;;;;;33.92;29.65;;;19.30;55.00;;;;;;5008259;28;20029;-80
2021/04/21 08:12:55;;;;;;;34.13;30.67;;;19.40;55.00;;;;;;5008305;28;20037;-82
2021/04/21 08:15:32;;;;;;;34.60;31.25;;;19.50;54.80;;;;;;5025311;28;20624;-80
2021/04/21 08:18:16;;;;;;;33.63;30.10;;;19.60;54.70;;;;;;5024653;28;20030;-82
2021/04/21 08:20:45;;;;;;;35.30;31.58;;;19.80;54.70;;;;;;5008570;28;20496;-82
2021/04/21 08:23:17;;;;;;;33.33;30.08;;;19.90;54.60;;;;;;5026787;28;20256;-81
2021/04/21 08:25:43;;;;;;;33.72;30.02;;;19.90;54.20;;;;;;4977044;28;20026;-82
2021/04/21 08:28:09;;;;;;;33.65;30.15;;;19.90;54.00;;;;;;5009414;28;20041;-83
2021/04/21 08:30:35;;;;;;;35.63;31.90;;;20.00;54.00;;;;;;4993640;28;20029;-83
2021/04/21 08:33:02;;;;;;;38.35;34.30;;;20.00;53.80;;;;;;5026906;28;20432;-84
2021/04/21 08:35:29;;;;;;;39.08;33.10;;;20.00;53.70;;;;;;5027018;28;20029;-83
2021/04/21 08:37:55;;;;;;;36.45;32.83;;;20.00;53.50;;;;;;5025029;28;20055;-83
2021/04/21 08:40:26;;;;;;;36.40;32.75;;;20.00;53.50;;;;;;4992541;28;20307;-84
2021/04/21 08:42:58;;;;;;;37.42;33.70;;;20.00;53.40;;;;;;5021979;28;20389;-84
2021/04/21 08:45:24;;;;;;;37.38;33.70;;;19.90;53.10;;;;;;4989116;28;20030;-85
2021/04/21 08:47:54;;;;;;;37.30;33.47;;;19.90;53.10;;;;;;5007644;28;20042;-84
2021/04/21 08:50:29;;;;;;;39.15;35.03;;;19.90;53.10;;;;;;4993828;28;20111;-84
2021/04/21 08:53:02;;;;;;;40.65;36.45;;;19.90;53.10;;;;;;5008435;28;20064;-83
2021/04/21 08:55:28;;;;;;;38.70;34.87;;;19.90;53.00;;;;;;4993778;28;20032;-85
2021/04/21 08:57:55;;;;;;;41.45;35.95;;;19.90;53.00;;;;;;4992181;28;20037;-82
2021/04/21 09:00:22;;;;;;;40.17;36.08;;;19.90;53.00;;;;;;5009861;28;20030;-83
2021/04/21 09:02:49;;;;;;;39.85;35.45;;;19.90;53.00;;;;;;5026760;28;20048;-83
2021/04/21 09:05:17;;;;;;;39.85;35.03;;;20.00;53.60;;;;;;4999166;28;20029;-83
2021/04/21 09:07:43;;;;;;;40.35;35.95;;;20.00;53.00;;;;;;5008034;28;20040;-83
2021/04/21 09:10:12;;;;;;;39.17;35.22;;;20.00;52.90;;;;;;5024463;28;20026;-83
2021/04/21 09:12:39;;;;;;;43.53;39.08;;;20.10;53.00;;;;;;5007486;28;20033;-83
2021/04/21 09:15:07;;;;;;;42.60;38.15;;;20.20;53.10;;;;;;5007590;28;20140;-84
2021/04/21 09:17:44;;;;;;;41.83;37.42;;;20.30;53.10;;;;;;4991756;28;20040;-83
2021/04/21 09:20:16;;;;;;;43.10;38.60;;;20.40;53.10;;;;;;5024423;28;20038;-83
2021/04/21 09:22:58;;;;;;;42.97;38.40;;;20.50;53.10;;;;;;5023646;28;20029;-83
2021/04/21 09:25:24;;;;;;;43.28;37.60;;;20.50;53.50;;;;;;5025128;28;20087;-83
2021/04/21 09:27:55;;;;;;;43.88;39.28;;;20.60;53.10;;;;;;5008780;28;20030;-84
2021/04/21 09:30:22;;;;;;;43.47;38.92;;;20.60;53.00;;;;;;4993373;28;20087;-84
2021/04/21 09:32:53;;;;;;;42.78;38.22;;;20.60;53.00;;;;;;5028905;28;20106;-83
2021/04/21 09:35:28;;;;;;;41.67;37.50;;;20.60;52.90;;;;;;5028081;28;20037;-82
2021/04/21 09:38:24;;;;;;;42.00;37.83;;;20.60;52.90;;;;;;5024345;28;20128;-81
2021/04/21 09:40:54;;;;;;;41.30;37.17;;;20.60;52.80;;;;;;4975426;28;20081;-81
2021/04/21 09:43:23;;;;;;;44.17;39.63;;;20.70;53.00;;;;;;5002507;28;20091;-82
2021/04/21 09:45:52;;;;;;;43.90;39.30;;;20.70;52.90;;;;;;5010816;28;20068;-82
2021/04/21 09:48:28;;;;;;;45.90;40.97;;;20.80;53.00;;;;;;5010811;28;20389;-81
2021/04/21 09:51:07;;;;;;;45.60;40.97;;;20.90;53.20;;;;;;4994580;28;20032;-80
2021/04/21 09:53:36;;;;;;;43.00;38.38;;;20.90;53.00;;;;;;5011135;28;20036;-80
2021/04/21 09:56:16;;;;;;;46.47;41.13;;;20.90;53.00;;;;;;5027644;28;20060;-81
2021/04/21 09:58:49;;;;;;;42.28;38.15;;;21.00;53.10;;;;;;5011554;28;20041;-79
2021/04/21 10:01:26;;;;;;;46.60;42.03;;;21.20;53.30;;;;;;5029022;28;20030;-82
2021/04/21 10:04:24;;;;;;;56.70;50.92;;;21.30;53.10;;;;;;5011382;28;20037;-80
2021/04/21 10:07:01;;;;;;;52.67;46.03;;;21.20;52.30;;;;;;5008214;28;20056;-80
2021/04/21 10:09:34;;;;;;;53.33;47.65;;;21.10;52.10;;;;;;5027443;28;20167;-80
2021/04/21 10:12:16;;;;;;;55.50;49.65;;;21.00;52.00;;;;;;5028847;28;20184;-82
2021/04/21 10:14:44;;;;;;;54.40;48.65;;;21.00;52.20;;;;;;5010563;28;20068;-80
2021/04/21 10:17:13;;;;;;;54.45;48.78;;;20.90;52.10;;;;;;5010939;28;20388;-81
2021/04/21 10:19:41;;;;;;;53.53;47.75;;;20.90;52.10;;;;;;5027027;28;20021;-80
2021/04/21 10:22:11;;;;;;;56.17;49.40;;;20.90;52.10;;;;;;4994253;28;20124;-80
2021/04/21 10:24:38;;;;;;;55.45;49.38;;;20.90;52.10;;;;;;5029849;28;20109;-81
2021/04/21 10:27:04;;;;;;;52.22;46.65;;;21.00;52.30;;;;;;5012895;28;20052;-81
2021/04/21 10:29:31;;;;;;;52.47;47.00;;;21.00;52.20;;;;;;5012006;28;20061;-82
2021/04/21 10:31:57;;;;;;;56.90;50.72;;;21.10;52.30;;;;;;5029070;28;20037;-80
2021/04/21 10:34:23;;;;;;;52.60;46.97;;;21.10;52.30;;;;;;5028344;28;20041;-80
2021/04/21 10:36:51;;;;;;;52.75;47.05;;;21.20;52.50;;;;;;5020527;28;20484;-80
2021/04/21 10:39:35;;;;;;;53.25;47.63;;;21.30;52.60;;;;;;4985998;28;20044;-80
2021/04/21 10:42:07;;;;;;;;;;;21.50;52.80;;;;;;5025255;28;20048;-80
2021/04/21 10:44:34;;;;;;;50.88;45.70;;;21.60;52.80;;;;;;4990735;28;19917;-84
2021/04/21 10:47:09;;;;;;;52.22;46.55;;;21.60;52.70;;;;;;4990210;28;20042;-80
2021/04/21 10:49:43;;;;;;;52.20;46.53;;;21.70;52.80;;;;;;4990133;28;20034;-81
2021/04/21 10:52:15;;;;;;;50.70;45.33;;;21.70;52.70;;;;;;4991271;28;20065;-79
2021/04/21 10:54:43;;;;;;;53.70;47.63;;;21.70;52.70;;;;;;5010299;28;20033;-79
2021/04/21 10:57:21;;;;;;;50.22;45.08;;;21.70;52.70;;;;;;5009943;28;20115;-79
2021/04/21 11:00:06;;;;;;;50.05;44.72;;;21.80;52.80;;;;;;5010175;28;20033;-79
2021/04/21 11:03:01;;;;;;;50.10;44.78;;;21.90;52.90;;;;;;5027628;28;20026;-81
2021/04/21 11:05:39;;;;;;;50.38;45.30;;;21.90;52.80;;;;;;5011742;28;20033;-81
2021/04/21 11:08:21;;;;;;;55.28;46.80;;;21.90;52.80;;;;;;5009299;28;20025;-81
2021/04/21 11:11:03;;;;;;;49.47;44.60;;;22.00;52.90;;;;;;5008167;28;20080;-80
2021/04/21 11:13:38;;;;;;;48.90;43.88;;;22.00;52.90;;;;;;5010465;28;20029;-80
2021/04/21 11:16:06;;;;;;;49.65;44.40;;;22.10;53.00;;;;;;5027075;28;20120;-80
2021/04/21 11:18:38;;;;;;;49.85;44.38;;;22.10;53.00;;;;;;5026664;28;20026;-82
2021/04/21 11:21:08;;;;;;;50.05;43.75;;;22.20;53.10;;;;;;5009954;28;20052;-79
2021/04/21 11:24:09;;;;;;;48.55;43.40;;;22.20;53.00;;;;;;5017698;28;20033;-79
2021/04/21 11:26:40;;;;;;;48.15;42.97;;;22.20;52.90;;;;;;5009708;28;20092;-79
2021/04/21 11:29:08;;;;;;;50.55;45.15;;;22.40;53.20;;;;;;5017493;28;20044;-80
2021/04/21 11:32:06;;;;;;;48.72;43.42;;;22.40;53.10;;;;;;5025461;28;20052;-79
2021/04/21 11:34:38;;;;;;;48.25;43.10;;;22.50;53.10;;;;;;5008183;28;20060;-79
2021/04/21 11:37:07;;;;;;;46.35;41.40;;;22.60;53.10;;;;;;5009726;28;20197;-79
2021/04/21 11:39:42;;;;;;;49.05;43.83;;;22.60;53.00;;;;;;5008942;28;20022;-79
2021/04/21 11:42:33;;;;;;;45.78;40.83;;;22.70;53.10;;;;;;4992651;28;20034;-79
2021/04/21 11:45:17;;;;;;;48.22;43.08;;;22.70;53.00;;;;;;4992690;28;20148;-81
2021/04/21 11:47:49;;;;;;;44.72;40.33;;;22.70;52.90;;;;;;5008038;28;20103;-79
2021/04/21 11:50:18;;;;;;;46.47;41.42;;;22.80;53.10;;;;;;4992445;28;20033;-79
2021/04/21 11:52:53;;;;;;;45.63;40.95;;;22.80;53.00;;;;;;5025233;28;20449;-78
2021/04/21 11:55:21;;;;;;;45.60;40.92;;;22.80;53.00;;;;;;5025227;28;20033;-80
2021/04/21 11:57:56;;;;;;;42.45;38.10;;;22.90;53.00;;;;;;5009126;28;20052;-79
2021/04/21 12:00:25;;;;;;;41.95;37.67;;;23.00;53.00;;;;;;5008700;28;20503;-78
2021/04/21 12:02:51;;;;;;;41.85;37.55;;;23.10;53.10;;;;;;5026225;28;20029;-79
2021/04/21 12:05:22;;;;;;;43.08;38.65;;;23.20;53.20;;;;;;5026312;28;20022;-78
2021/04/21 12:07:49;;;;;;;41.13;36.72;;;23.20;53.00;;;;;;5025931;28;20033;-78
2021/04/21 12:10:20;;;;;;;41.65;36.80;;;23.30;53.10;;;;;;5025384;28;20055;-80
2021/04/21 12:12:46;;;;;;;39.65;35.47;;;23.30;52.90;;;;;;5008684;28;20037;-79
2021/04/21 12:15:12;;;;;;;42.50;38.20;;;23.40;53.20;;;;;;5008609;28;20104;-79
2021/04/21 12:17:57;;;;;;;40.72;36.53;;;23.40;53.10;;;;;;5026360;28;20046;-80
2021/04/21 12:20:27;;;;;;;38.17;34.15;;;23.50;53.20;;;;;;4992752;28;20033;-80
2021/04/21 12:22:54;;;;;;;35.70;32.13;;;23.60;53.20;;;;;;5024354;28;20029;-79
2021/04/21 12:25:26;;;;;;;34.90;31.50;;;23.60;53.10;;;;;;5008054;28;20447;-80
2021/04/21 12:27:57;;;;;;;35.88;32.28;;;23.70;53.10;;;;;;5008341;28;20535;-82
2021/04/21 12:30:28;;;;;;;34.92;31.52;;;23.70;53.00;;;;;;5008307;28;20029;-81
2021/04/21 12:32:55;;;;;;;35.13;31.52;;;23.80;53.20;;;;;;5004719;28;20276;-81
2021/04/21 12:35:22;;;;;;;32.20;29.20;;;23.90;53.30;;;;;;5005423;28;20065;-81
2021/04/21 12:38:00;;;;;;;33.45;30.20;;;24.10;53.40;;;;;;5006659;28;20474;-81
2021/04/21 12:40:30;;;;;;;33.78;30.60;;;24.30;53.50;;;;;;5026446;28;20033;-80
2021/04/21 12:43:16;;;;;;;32.42;28.52;;;24.40;53.50;;;;;;5024850;28;20461;-80
2021/04/21 12:45:43;;;;;;;31.90;28.67;;;24.50;53.40;;;;;;5025680;28;20496;-78
2021/04/21 12:48:23;;;;;;;31.67;28.50;;;24.60;53.40;;;;;;4991686;28;20057;-79
2021/04/21 12:50:57;;;;;;;30.55;27.45;;;24.80;53.60;;;;;;5008587;28;20481;-79
2021/04/21 12:53:31;;;;;;;28.85;26.08;;;24.80;53.40;;;;;;5024490;28;20025;-79
2021/04/21 12:56:08;;;;;;;29.13;26.23;;;24.90;53.40;;;;;;5025818;28;20034;-80
2021/04/21 12:58:37;;;;;;;27.30;24.70;;;24.90;53.30;;;;;;5024064;28;20485;-82
2021/04/21 13:01:13;;;;;;;28.17;24.77;;;24.80;53.20;;;;;;5008457;28;20053;-82
2021/04/21 13:03:54;;;;;;;26.88;24.23;;;24.80;53.10;;;;;;5008244;28;20116;-80